createdAt,value
2019-03-31T00:02:21.799Z,20.25
2019-03-31T00:07:21.748Z,22.25
2019-03-31T00:12:21.057Z,22.55
2019-03-31T00:14:51.579Z,19.45
2019-03-31T00:17:22.460Z,24.20
2019-03-31T00:19:52.932Z,19.73
2019-03-31T00:22:22.953Z,22.90
2019-03-31T00:24:53.590Z,21.55
2019-03-31T00:27:24.859Z,21.17
2019-03-31T00:29:54.939Z,21.30
2019-03-31T00:32:27.929Z,23.45
2019-03-31T00:34:58.141Z,20.90
2019-03-31T00:37:28.548Z,22.02
2019-03-31T00:40:00.999Z,19.27
2019-03-31T00:42:34.295Z,21.35
2019-03-31T00:45:05.285Z,22.15
2019-03-31T00:47:36.037Z,19.55
2019-03-31T00:50:08.167Z,24.07
2019-03-31T00:52:38.702Z,22.10
2019-03-31T00:57:38.014Z,21.10
2019-03-31T01:00:10.609Z,21.27
2019-03-31T01:02:42.851Z,20.20
2019-03-31T01:05:13.186Z,21.20
2019-03-31T01:07:44.417Z,20.62
2019-03-31T01:10:15.617Z,20.17
2019-03-31T01:15:22.847Z,21.20
2019-03-31T01:17:53.110Z,22.90
2019-03-31T01:20:24.752Z,21.17
2019-03-31T01:22:57.593Z,21.90
2019-03-31T01:25:28.538Z,21.07
2019-03-31T01:28:01.093Z,22.77
2019-03-31T01:30:32.715Z,21.15
2019-03-31T01:35:32.025Z,22.77
2019-03-31T01:38:02.556Z,21.33
2019-03-31T01:40:34.027Z,21.77
2019-03-31T01:43:04.941Z,21.95
2019-03-31T01:45:35.002Z,20.48
2019-03-31T01:48:06.074Z,20.88
2019-03-31T01:50:36.752Z,21.45
2019-03-31T01:53:17.170Z,23.15
2019-03-31T01:55:55.932Z,21.75
2019-03-31T01:59:02.703Z,26.02
2019-03-31T02:05:24.050Z,25.02
2019-03-31T02:07:54.850Z,21.73
2019-03-31T02:10:24.921Z,20.85
2019-03-31T02:12:55.070Z,21.30
2019-03-31T02:15:25.851Z,22.52
2019-03-31T02:17:56.113Z,22.70
2019-03-31T02:20:26.603Z,24.32
2019-03-31T02:22:57.131Z,21.20
2019-03-31T02:25:27.714Z,21.52
2019-03-31T02:30:27.553Z,23.77
2019-03-31T02:32:58.011Z,27.52
2019-03-31T02:35:28.003Z,23.22
2019-03-31T02:37:58.778Z,22.02
2019-03-31T02:42:58.799Z,22.42
2019-03-31T02:45:29.497Z,25.92
2019-03-31T02:50:50.746Z,24.32
2019-03-31T02:55:53.153Z,22.77
2019-03-31T02:58:24.019Z,22.25
2019-03-31T03:00:56.172Z,24.50
2019-03-31T03:03:27.584Z,24.92
2019-03-31T03:06:00.978Z,24.35
2019-03-31T03:08:36.316Z,23.75
2019-03-31T03:11:08.494Z,27.17
2019-03-31T03:13:43.502Z,26.97
2019-03-31T03:16:20.085Z,26.45
2019-03-31T03:18:51.732Z,27.15
2019-03-31T03:23:53.865Z,25.30
2019-03-31T03:26:24.285Z,26.40
2019-03-31T03:28:54.741Z,25.85
2019-03-31T03:33:55.084Z,25.00
2019-03-31T03:36:25.855Z,24.72
2019-03-31T03:38:57.177Z,25.50
2019-03-31T03:41:27.750Z,27.80
2019-03-31T03:46:30.000Z,24.45
2019-03-31T03:49:00.877Z,23.75
2019-03-31T03:51:32.199Z,23.15
2019-03-31T03:54:03.999Z,22.80
2019-03-31T03:56:35.067Z,26.35
2019-03-31T03:59:07.546Z,25.17
2019-03-31T04:01:38.305Z,27.35
2019-03-31T04:04:08.969Z,26.87
2019-03-31T04:06:39.123Z,26.70
2019-03-31T04:09:10.153Z,24.63
2019-03-31T04:11:41.096Z,25.57
2019-03-31T04:14:11.792Z,26.35
2019-03-31T04:19:11.710Z,24.60
2019-03-31T04:24:11.540Z,24.80
2019-03-31T04:26:42.028Z,24.85
2019-03-31T04:29:12.736Z,25.00
2019-03-31T04:34:14.976Z,26.68
2019-03-31T04:36:45.596Z,26.55
2019-03-31T04:39:16.073Z,24.30
2019-03-31T04:41:46.926Z,26.45
2019-03-31T04:44:17.124Z,26.00
2019-03-31T04:46:47.660Z,27.50
2019-03-31T04:49:17.992Z,28.10
2019-03-31T04:51:48.565Z,26.57
2019-03-31T04:54:18.929Z,26.57
2019-03-31T04:56:50.924Z,29.45
2019-03-31T04:59:21.231Z,25.17
2019-03-31T05:01:51.948Z,25.30
2019-03-31T05:04:22.541Z,23.38
2019-03-31T05:06:53.128Z,25.55
2019-03-31T05:09:23.712Z,26.97
2019-03-31T05:14:23.863Z,24.52
2019-03-31T05:16:54.895Z,26.55
2019-03-31T05:19:25.322Z,26.65
2019-03-31T05:21:56.139Z,25.62
2019-03-31T05:24:30.052Z,23.47
2019-03-31T05:27:01.607Z,26.40
2019-03-31T05:29:32.294Z,24.40
2019-03-31T05:32:02.901Z,25.23
2019-03-31T05:34:33.295Z,26.42
2019-03-31T05:37:04.332Z,22.35
2019-03-31T05:39:34.944Z,25.10
2019-03-31T05:42:05.327Z,26.30
2019-03-31T05:44:35.956Z,25.62
2019-03-31T05:47:06.013Z,20.68
2019-03-31T05:49:36.912Z,26.37
2019-03-31T05:52:07.768Z,21.50
2019-03-31T05:54:38.315Z,20.05
2019-03-31T05:57:08.949Z,20.10
2019-03-31T05:59:39.884Z,22.15
2019-03-31T06:02:10.524Z,17.20
2019-03-31T06:04:40.994Z,19.40
2019-03-31T06:07:11.630Z,19.55
2019-03-31T06:09:41.978Z,20.20
2019-03-31T06:12:12.597Z,18.10
2019-03-31T06:17:11.936Z,16.45
2019-03-31T06:19:43.000Z,18.15
2019-03-31T06:22:13.577Z,17.95
2019-03-31T06:27:15.849Z,17.27
2019-03-31T06:29:46.026Z,17.15
2019-03-31T06:32:16.640Z,20.02
2019-03-31T06:39:47.567Z,18.45
2019-03-31T06:44:47.051Z,18.20
2019-03-31T06:47:17.551Z,17.42
2019-03-31T06:49:47.880Z,17.92
2019-03-31T06:52:18.083Z,17.12
2019-03-31T06:54:48.543Z,17.57
2019-03-31T06:57:18.838Z,21.60
2019-03-31T06:59:49.000Z,17.77
2019-03-31T07:02:19.009Z,17.48
2019-03-31T07:05:00.503Z,15.68
2019-03-31T07:07:23.659Z,16.50
2019-03-31T07:09:53.020Z,17.32
2019-03-31T07:12:23.501Z,15.35
2019-03-31T07:14:53.943Z,17.57
2019-03-31T07:17:23.972Z,17.42
2019-03-31T07:19:54.455Z,17.12
2019-03-31T07:22:24.699Z,15.00
2019-03-31T07:27:25.053Z,16.02
2019-03-31T07:29:55.694Z,16.90
2019-03-31T07:34:55.744Z,14.53
2019-03-31T07:39:55.925Z,16.80
2019-03-31T07:42:26.883Z,15.72
2019-03-31T07:44:57.541Z,17.32
2019-03-31T07:47:27.908Z,15.70
2019-03-31T07:49:59.037Z,17.25
2019-03-31T07:52:29.842Z,18.57
2019-03-31T07:55:00.570Z,15.35
2019-03-31T08:00:00.609Z,17.20
2019-03-31T08:02:30.982Z,15.68
2019-03-31T08:05:01.044Z,17.85
2019-03-31T08:07:31.615Z,14.98
2019-03-31T08:10:01.949Z,15.10
2019-03-31T08:12:32.578Z,15.40
2019-03-31T08:17:32.941Z,16.00
2019-03-31T08:20:04.445Z,16.32
2019-03-31T08:22:34.934Z,18.17
2019-03-31T08:25:05.577Z,15.60
2019-03-31T08:27:35.995Z,16.02
2019-03-31T08:30:10.493Z,15.58
2019-03-31T08:32:41.019Z,16.77
2019-03-31T08:35:12.883Z,14.98
2019-03-31T08:37:43.136Z,16.32
2019-03-31T08:40:15.522Z,15.65
2019-03-31T08:42:45.910Z,13.75
2019-03-31T08:45:16.594Z,15.35
2019-03-31T08:47:48.066Z,16.60
2019-03-31T08:50:18.569Z,17.05
2019-03-31T08:52:48.833Z,15.60
2019-03-31T08:55:18.913Z,18.92
2019-03-31T08:57:49.060Z,15.78
2019-03-31T09:00:27.715Z,16.85
2019-03-31T09:05:27.931Z,17.45
2019-03-31T09:07:58.176Z,15.35
2019-03-31T09:10:28.583Z,16.90
2019-03-31T09:15:28.503Z,17.52
2019-03-31T09:17:59.045Z,17.23
2019-03-31T09:20:29.609Z,19.85
2019-03-31T09:25:29.396Z,19.98
2019-03-31T09:28:00.303Z,20.88
2019-03-31T09:30:31.337Z,22.52
2019-03-31T09:33:01.956Z,20.00
2019-03-31T09:35:32.014Z,19.90
2019-03-31T09:38:01.999Z,19.80
2019-03-31T09:40:32.603Z,21.35
2019-03-31T09:43:03.016Z,18.42
2019-03-31T09:45:33.166Z,21.25
2019-03-31T09:48:03.663Z,20.62
2019-03-31T09:50:34.055Z,17.92
2019-03-31T09:53:04.507Z,20.50
2019-03-31T09:55:34.713Z,23.77
2019-03-31T09:58:04.938Z,24.20
2019-03-31T10:00:49.600Z,22.25
2019-03-31T10:03:21.907Z,25.77
2019-03-31T10:05:52.222Z,20.92
2019-03-31T10:08:22.731Z,20.77
2019-03-31T10:11:43.168Z,20.65
2019-03-31T10:14:14.885Z,19.23
2019-03-31T10:16:45.093Z,20.90
2019-03-31T10:19:15.817Z,21.62
2019-03-31T10:21:46.001Z,22.15
2019-03-31T10:24:16.625Z,22.32
2019-03-31T10:26:46.997Z,20.12
2019-03-31T10:29:17.917Z,19.32
2019-03-31T10:31:48.770Z,24.70
2019-03-31T10:34:19.269Z,20.82
2019-03-31T10:36:49.611Z,20.52
2019-03-31T10:41:51.791Z,19.73
2019-03-31T10:44:22.309Z,22.73
2019-03-31T10:46:53.059Z,25.20
2019-03-31T10:49:24.605Z,25.00
2019-03-31T10:54:24.816Z,22.90
2019-03-31T10:56:55.996Z,23.95
2019-03-31T10:59:27.312Z,20.92
2019-03-31T11:01:58.117Z,21.35
2019-03-31T11:04:29.308Z,25.45
2019-03-31T11:07:03.385Z,26.95
2019-03-31T11:09:34.382Z,23.92
2019-03-31T11:12:04.578Z,22.62
2019-03-31T11:14:34.951Z,23.07
2019-03-31T11:17:05.150Z,19.52
2019-03-31T11:19:35.743Z,20.52
2019-03-31T11:22:29.662Z,17.98
2019-03-31T11:27:29.126Z,15.70
2019-03-31T11:29:59.601Z,12.45
2019-03-31T11:32:29.979Z,15.40
2019-03-31T11:35:00.035Z,14.90
2019-03-31T11:37:30.589Z,14.95
2019-03-31T11:40:00.982Z,14.25
2019-03-31T11:42:31.608Z,12.20
2019-03-31T11:45:01.997Z,8.83
2019-03-31T11:47:33.888Z,8.33
2019-03-31T11:50:04.577Z,10.63
2019-03-31T11:52:35.023Z,11.57
2019-03-31T11:55:05.901Z,14.05
2019-03-31T11:57:37.143Z,10.23
2019-03-31T12:00:11.554Z,17.73
2019-03-31T12:10:11.731Z,15.38
2019-03-31T12:12:41.955Z,17.30
2019-03-31T12:15:13.081Z,16.32
2019-03-31T12:17:43.748Z,16.57
2019-03-31T12:25:19.644Z,16.90
2019-03-31T12:27:49.003Z,17.45
2019-03-31T12:30:28.324Z,17.17
2019-03-31T12:32:59.023Z,18.35
2019-03-31T12:35:29.765Z,23.18
2019-03-31T12:38:00.600Z,14.65
2019-03-31T12:40:34.100Z,12.60
2019-03-31T12:43:04.901Z,16.35
2019-03-31T12:45:35.530Z,15.80
2019-03-31T12:48:06.128Z,15.95
2019-03-31T12:50:36.748Z,16.57
2019-03-31T12:53:07.033Z,13.85
2019-03-31T12:55:38.056Z,15.20
2019-03-31T12:58:10.076Z,16.25
2019-03-31T13:00:40.782Z,14.93
2019-03-31T13:03:10.968Z,16.30
2019-03-31T13:05:41.318Z,16.15
2019-03-31T13:08:11.882Z,15.38
2019-03-31T13:10:42.294Z,17.95
2019-03-31T13:13:12.634Z,19.57
2019-03-31T13:15:42.973Z,17.85
2019-03-31T15:27:01.351Z,9.03
2019-03-31T15:32:02.073Z,10.28
2019-03-31T15:34:33.315Z,6.55
2019-03-31T15:37:04.315Z,6.70
2019-03-31T15:39:34.931Z,7.42
2019-03-31T15:42:05.602Z,6.87
2019-03-31T15:47:05.531Z,7.65
2019-03-31T15:49:35.978Z,6.92
2019-03-31T15:52:08.860Z,5.87
2019-03-31T15:54:39.081Z,8.58
2019-03-31T15:57:09.728Z,5.05
2019-03-31T15:59:48.747Z,7.08
2019-03-31T16:04:48.941Z,6.75
2019-03-31T16:07:19.018Z,5.70
2019-03-31T16:09:47.938Z,6.05
2019-03-31T16:12:16.978Z,6.25
2019-03-31T16:14:45.961Z,5.30
2019-03-31T16:17:15.581Z,6.37
2019-03-31T16:22:13.295Z,6.47
2019-03-31T16:24:45.687Z,6.30
2019-03-31T16:29:43.627Z,6.37
2019-03-31T16:32:12.909Z,7.37
2019-03-31T16:34:42.096Z,7.80
2019-03-31T16:37:11.094Z,6.58
2019-03-31T16:39:40.307Z,6.12
2019-03-31T16:42:09.552Z,7.47
2019-03-31T16:44:38.732Z,6.95
2019-03-31T16:47:07.602Z,7.80
2019-03-31T16:52:05.449Z,6.78
2019-03-31T16:54:34.597Z,5.30
2019-03-31T16:57:03.766Z,6.97
2019-03-31T16:59:32.784Z,8.18
2019-03-31T17:02:01.740Z,24.23
2019-03-31T17:09:28.289Z,17.77
2019-03-31T17:11:57.459Z,8.78
2019-03-31T17:14:26.596Z,11.40
2019-03-31T17:16:55.441Z,9.75
2019-03-31T17:19:24.424Z,21.52
2019-03-31T17:21:53.577Z,13.38
2019-03-31T17:24:22.770Z,13.68
2019-03-31T17:29:20.291Z,13.88
2019-03-31T17:31:49.302Z,15.95
2019-03-31T17:34:18.486Z,48.28
2019-03-31T17:36:48.480Z,14.95
2019-03-31T17:39:17.521Z,12.85
2019-03-31T17:41:46.766Z,23.05
2019-03-31T17:46:44.124Z,9.65
2019-03-31T17:49:13.634Z,10.48
2019-03-31T17:51:42.804Z,9.45
2019-03-31T17:54:12.065Z,8.75
2019-03-31T17:56:42.057Z,13.45
2019-03-31T17:59:11.652Z,9.30
2019-03-31T18:01:41.546Z,11.30
2019-03-31T18:04:11.108Z,6.92
2019-03-31T18:06:40.676Z,9.60
2019-03-31T18:19:05.761Z,10.60
2019-03-31T18:24:04.771Z,8.13
2019-03-31T18:26:34.524Z,8.50
2019-03-31T18:29:03.940Z,7.00
2019-03-31T18:31:34.336Z,8.10
2019-03-31T18:34:04.104Z,6.80
2019-03-31T18:36:36.975Z,7.58
2019-03-31T18:39:07.148Z,7.42
2019-03-31T18:41:36.876Z,8.70
2019-03-31T18:44:06.006Z,7.37
2019-03-31T18:46:35.006Z,6.33
2019-03-31T18:49:04.151Z,7.72
2019-03-31T18:51:33.221Z,5.90
2019-03-31T18:54:27.966Z,9.95
2019-03-31T18:57:22.483Z,7.70
2019-03-31T19:00:14.099Z,6.55
2019-03-31T19:03:02.863Z,7.60
2019-03-31T19:05:54.304Z,6.47
2019-03-31T19:08:39.508Z,7.87
2019-03-31T19:11:29.574Z,8.80
2019-03-31T19:14:33.445Z,9.78
2019-03-31T19:17:21.481Z,9.63
2019-03-31T19:20:28.275Z,9.60
2019-03-31T19:23:16.395Z,10.08
2019-03-31T19:26:04.330Z,11.83
2019-03-31T19:28:55.690Z,12.37
2019-03-31T19:31:32.842Z,12.55
2019-03-31T19:34:27.717Z,10.28
2019-03-31T19:37:22.596Z,12.13
2019-03-31T19:40:13.807Z,12.00
2019-03-31T19:43:18.148Z,10.70
2019-03-31T19:46:07.228Z,11.63
2019-03-31T19:48:56.047Z,12.23
2019-03-31T19:51:43.134Z,11.90
2019-03-31T19:54:37.836Z,10.75
2019-03-31T19:57:23.530Z,12.23
2019-03-31T20:02:59.854Z,13.13
2019-03-31T20:05:55.666Z,11.75
2019-03-31T20:11:52.592Z,14.07
2019-03-31T20:17:28.307Z,15.53
2019-03-31T20:20:15.581Z,14.07
2019-03-31T20:23:05.698Z,15.30
2019-03-31T20:30:14.182Z,15.38
2019-03-31T20:33:14.748Z,16.02
2019-03-31T20:39:02.646Z,17.42
2019-03-31T20:41:59.183Z,18.52
2019-03-31T20:44:28.549Z,19.23
2019-03-31T20:49:26.772Z,22.62
2019-03-31T20:54:25.139Z,16.60
2019-03-31T20:56:54.972Z,19.75
2019-03-31T20:59:24.763Z,20.62
2019-03-31T21:01:54.315Z,20.02
2019-03-31T21:04:23.511Z,22.27
2019-03-31T21:06:53.983Z,19.82
2019-03-31T21:09:23.682Z,19.27
2019-03-31T21:11:54.458Z,24.00
2019-03-31T21:14:23.922Z,21.60
2019-03-31T21:16:53.935Z,21.55
2019-03-31T21:19:23.848Z,20.27
2019-03-31T21:21:53.513Z,21.40
2019-03-31T21:24:23.387Z,21.12
2019-03-31T21:26:53.744Z,21.65
2019-03-31T21:29:24.443Z,22.40
2019-03-31T21:31:54.306Z,22.15
2019-03-31T21:36:45.983Z,22.75
2019-03-31T21:39:15.027Z,24.05
2019-03-31T21:41:44.301Z,25.17
2019-03-31T21:44:13.466Z,25.72
2019-03-31T21:46:42.566Z,23.90
2019-03-31T21:49:11.893Z,24.43
2019-03-31T21:51:41.012Z,27.20
2019-03-31T21:54:10.052Z,27.17
2019-03-31T21:56:39.136Z,25.77
2019-03-31T21:59:08.101Z,26.75
2019-03-31T22:01:37.316Z,27.82
2019-03-31T22:04:06.616Z,26.62
2019-03-31T22:06:35.608Z,27.02
2019-03-31T22:11:38.595Z,28.10
2019-03-31T22:14:10.695Z,26.20
2019-03-31T22:16:39.953Z,26.30
2019-03-31T22:19:08.971Z,27.93
2019-03-31T22:21:37.936Z,26.90
2019-03-31T22:24:06.986Z,28.32
2019-03-31T22:26:35.967Z,29.00
2019-03-31T22:29:04.997Z,27.07
2019-03-31T22:31:33.991Z,29.82
2019-03-31T22:34:03.391Z,31.73
2019-03-31T22:36:32.535Z,31.37
2019-03-31T22:39:01.624Z,31.77
2019-03-31T22:41:32.526Z,34.55
2019-03-31T22:44:01.810Z,31.55
2019-03-31T22:46:30.912Z,32.50
2019-03-31T22:48:59.828Z,32.40
2019-03-31T22:51:28.743Z,30.80
2019-03-31T22:56:25.974Z,33.85
2019-03-31T22:58:54.959Z,32.80
2019-03-31T23:01:23.950Z,36.08
2019-03-31T23:03:53.138Z,37.93
2019-03-31T23:06:22.159Z,37.38
2019-03-31T23:08:51.041Z,32.78
2019-03-31T23:11:20.038Z,36.28
2019-03-31T23:13:49.028Z,35.33
2019-03-31T23:16:18.063Z,37.05
2019-03-31T23:18:47.714Z,38.63
2019-03-31T23:23:44.931Z,36.35
2019-03-31T23:26:13.923Z,36.08
2019-03-31T23:28:45.687Z,36.35
2019-03-31T23:33:44.898Z,35.55
2019-03-31T23:36:14.439Z,36.88
2019-03-31T23:38:44.413Z,36.38
2019-03-31T23:41:13.530Z,36.28
2019-03-31T23:43:42.493Z,38.58
2019-03-31T23:46:12.569Z,39.15
2019-03-31T23:48:41.696Z,41.37
2019-03-31T23:53:40.481Z,38.42
2019-03-31T23:56:09.443Z,42.10
2019-03-31T23:58:38.599Z,41.48
